Latest Weather Observations for Tindal

IDD60801

Issued at 6:01 am CST Thursday 22 February 2018 (issued every 30 minutes, with the page automatically refreshed every 10 minutes)

About weather observations | Map of weather stations | Latest weather observations for NT | Other Formats
Station Details ID: 014932 Name: TINDAL RAAF Lat: -14.52 Lon: 132.38 Height: 133.6 m
Data from the previous 72 hours. | See also: Recent months at Tindal
Date/Time
CST
Temp
°C
App
Temp
°C
Dew
Point
°C
Rel
Hum
%
Delta-T
°C
Wind Press
QNH
hPa
Press
MSL
hPa
Rain since
9am
mm
Dir  Spd
km/h
Gust
km/h
Spd
kts
Gust
kts
22/06:00am 25.4 28.9 24.2 93 0.8 NW 13 15 7 8 1006.1 1005.1 0.2
22/05:30am 25.2 29.2 23.8 92 1.0 NNW 9 13 5 7 1006.1 1005.1 0.2
22/05:00am 25.0 29.4 23.8 93 0.8 NW 7 11 4 6 1005.8 1004.8 0.2
22/04:30am 24.8 29.2 23.4 92 1.0 W 6 7 3 4 1005.6 1004.6 0.2
22/04:26am 24.8 29.2 23.4 92 1.0 WNW 6 7 3 4 1005.6 1004.6 0.2
22/04:00am 24.9 29.0 23.3 91 1.1 W 7 9 4 5 1005.5 1004.5 0.2
22/03:30am 25.0 29.2 23.2 90 1.2 W 6 9 3 5 1005.5 1004.5 0.2
22/03:00am 25.2 30.3 23.3 89 1.3 WNW 2 6 1 3 1005.5 1004.5 0.2
22/02:30am 25.3 29.4 23.2 88 1.4 WNW 7 9 4 5 1005.5 1004.5 0.2
22/02:00am 25.4 29.0 23.1 87 1.6 NW 9 9 5 5 1005.9 1004.9 0.2
22/01:30am 25.7 29.3 23.0 85 1.8 NW 9 9 5 5 1006.3 1005.3 0.2
22/01:00am 25.9 29.5 23.0 84 2.0 NNW 9 13 5 7 1006.2 1005.2 0.2
22/12:30am 26.3 29.9 23.0 82 2.3 NNW 9 11 5 6 1006.4 1005.4 0.2
22/12:00am 26.8 30.3 22.8 79 2.7 NNW 9 13 5 7 1006.7 1005.7 0.2
 
Date/Time
CST
Temp
°C
App
Temp
°C
Dew
Point
°C
Rel
Hum
%
Delta-T
°C
Wind Press
QNH
hPa
Press
MSL
hPa
Rain since
9am
mm
Dir  Spd
km/h
Gust
km/h
Spd
kts
Gust
kts
21/11:30pm 26.8 30.2 23.3 81 2.4 NW 11 15 6 8 1006.7 1005.7 0.2
21/11:00pm 26.9 30.5 23.8 83 2.1 NW 11 13 6 7 1007.0 1006.1 0.2
21/10:30pm 27.4 31.4 23.8 81 2.5 NW 9 11 5 6 1006.9 1006.0 0.2
21/10:00pm 28.0 33.6 23.6 77 3.0 CALM 0 0 0 0 1006.4 1005.4 0.2
21/09:30pm 28.3 31.7 23.4 75 3.4 WNW 11 15 6 8 1005.8 1004.8 0.2
21/09:00pm 28.8 31.0 23.2 71 3.9 NW 17 24 9 13 1005.4 1004.4 0.2
21/08:30pm 29.3 35.3 24.2 74 3.6 CALM 0 0 0 0 1005.2 1004.2 0.2
21/08:00pm 29.4 33.7 23.6 71 4.0 WNW 7 7 4 4 1005.1 1004.1 0.2
21/07:30pm 30.0 34.3 24.2 71 4.1 WNW 9 11 5 6 1005.0 1004.0 0.2
21/07:00pm 31.7 35.6 23.0 60 6.0 WNW 7 9 4 5 1004.8 1003.8 0.2
21/06:30pm 33.0 35.0 21.5 50 7.8 W 13 19 7 10 1004.4 1003.4 0.2
21/06:00pm 33.8 35.1 21.6 49 8.3 WNW 17 22 9 12 1004.2 1003.2 0.2
21/05:30pm 34.5 35.0 20.1 43 9.7 W 17 24 9 13 1003.5 1002.5 0.2
21/05:00pm 34.7 36.1 21.0 44 9.3 WNW 15 22 8 12 1003.3 1002.3 0.2
21/04:30pm 34.4 35.4 21.1 45 9.1 NW 17 22 9 12 1003.4 1002.4 0.2
21/04:00pm 34.6 36.1 22.0 48 8.7 WNW 17 26 9 14 1003.6 1002.6 0.2
21/03:30pm 34.4 35.0 21.1 45 9.0 WNW 19 28 10 15 1004.1 1003.1 0.2
21/03:00pm 34.5 36.5 22.2 48 8.5 WNW 15 22 8 12 1004.4 1003.4 0.2
21/02:30pm 34.3 36.4 21.7 47 8.6 W 13 22 7 12 1004.8 1003.8 0.2
21/02:00pm 33.8 36.4 21.9 49 8.1 NW 11 20 6 11 1005.4 1004.4 0.2
21/01:30pm 33.4 36.3 22.5 52 7.5 WNW 11 17 6 9 1006.1 1005.1 0.2
21/01:00pm 33.0 35.3 22.7 54 7.1 WNW 15 20 8 11 1006.7 1005.7 0.2
21/12:35pm 32.5 35.8 23.2 58 6.5 WNW 11 20 6 11 1007.0 1006.1 0.2
21/12:30pm 32.1 34.4 22.8 58 6.4 NW 15 20 8 11 1007.1 1006.2 0.2
21/12:00pm 32.0 34.6 23.3 60 6.0 NNW 15 22 8 12 1007.6 1006.7 0.2
21/11:30am 31.2 34.2 23.3 63 5.5 NW 13 20 7 11 1008.2 1007.2 0.2
21/11:00am 30.8 34.0 23.7 66 4.9 WNW 13 20 7 11 1008.6 1007.6 0.2
21/10:30am 29.9 33.0 23.6 69 4.4 WNW 13 20 7 11 1008.7 1007.7 0.0
21/10:00am 29.0 32.4 24.1 75 3.4 WNW 13 19 7 10 1008.8 1007.8 0.0
21/09:30am 27.9 31.3 24.1 80 2.6 NW 13 20 7 11 1008.6 1007.6 0.0
21/09:15am 27.4 31.2 24.1 82 2.3 WNW 11 15 6 8 1008.7 1007.7 0.0
21/09:00am 26.7 30.5 24.0 85 1.9 NW 11 15 6 8 1008.6 1007.6 0.0
21/08:30am 25.8 29.2 24.0 90 1.2 NW 13 17 7 9 1008.5 1007.5 0.0
21/08:00am 25.2 29.0 24.0 93 0.8 NW 11 17 6 9 1008.2 1007.2 0.0
21/07:46am 24.9 29.4 23.9 94 0.7 NW 7 11 4 6 1008.2 1007.2 0.0
21/07:30am 24.6 29.5 23.7 95 0.6 NNW 4 9 2 5 1008.2 1007.2 0.0
21/07:00am 24.2 28.3 23.3 95 0.6 NW 7 9 4 5 1007.9 1007.0 0.0
21/06:30am 24.1 28.3 23.2 95 0.6 WNW 6 7 3 4 1007.7 1006.8 0.0
21/06:00am 24.2 28.3 23.3 95 0.6 NW 7 9 4 5 1007.2 1006.3 0.0
21/05:30am 24.2 28.3 23.3 95 0.6 NNW 7 9 4 5 1006.8 1005.8 0.0
21/05:00am 24.2 28.4 23.2 94 0.7 WNW 6 9 3 5 1006.4 1005.4 0.0
21/04:30am 24.3 29.7 23.3 94 0.7 CALM 0 6 0 3 1006.0 1005.0 0.0
21/04:00am 24.5 29.7 23.5 94 0.7 NNW 2 7 1 4 1005.9 1004.9 0.0
21/03:30am 24.4 29.9 23.4 94 0.7 CALM 0 7 0 4 1005.6 1004.6 0.0
21/03:00am 24.5 30.1 23.5 94 0.7 CALM 0 0 0 0 1005.7 1004.7 0.0
21/02:30am 24.6 29.7 23.4 93 0.8 S 2 7 1 4 1005.8 1004.8 0.0
21/02:00am 24.8 29.1 23.6 93 0.8 WNW 7 9 4 5 1005.9 1004.9 0.0
21/01:30am 25.0 29.9 23.6 92 1.0 N 4 9 2 5 1006.8 1005.8 0.0
21/01:00am 24.7 29.1 23.5 93 0.8 ENE 6 7 3 4 1007.1 1006.2 0.0
21/12:30am 24.6 29.7 23.4 93 0.8 SE 2 7 1 4 1007.0 1006.1 0.0
21/12:00am 24.9 30.6 23.7 93 0.8 CALM 0 0 0 0 1007.2 1006.3 0.0
 
Date/Time
CST
Temp
°C
App
Temp
°C
Dew
Point
°C
Rel
Hum
%
Delta-T
°C
Wind Press
QNH
hPa
Press
MSL
hPa
Rain since
9am
mm
Dir  Spd
km/h
Gust
km/h
Spd
kts
Gust
kts
20/11:30pm 25.1 30.9 23.9 93 0.8 CALM 0 0 0 0 1007.4 1006.5 0.0
20/11:00pm 25.1 30.8 23.7 92 1.0 CALM 0 0 0 0 1007.8 1006.9 0.0
20/10:30pm 25.0 30.5 23.4 91 1.1 CALM 0 0 0 0 1007.9 1007.0 0.0
20/10:00pm 24.9 29.6 23.3 91 1.1 SE 4 9 2 5 1008.3 1007.3 0.0
20/09:30pm 25.2 29.9 23.3 89 1.3 NNE 4 7 2 4 1007.9 1007.0 0.0
20/09:00pm 25.2 30.6 23.3 89 1.3 CALM 0 0 0 0 1007.6 1006.7 0.0
20/08:30pm 25.1 30.5 23.3 90 1.2 CALM 0 0 0 0 1007.4 1006.5 0.0
20/08:00pm 25.1 30.0 23.0 88 1.4 NNE 2 7 1 4 1007.1 1006.2 0.0
20/07:30pm 25.2 29.7 22.9 87 1.6 N 4 7 2 4 1007.2 1006.3 0.0
20/07:00pm 25.2 29.3 22.9 87 1.6 NNE 6 11 3 6 1006.9 1006.0 0.0
20/06:30pm 25.4 26.8 22.9 86 1.7 WNW 20 30 11 16 1006.6 1005.6 0.0
20/06:00pm 25.5 24.8 23.2 87 1.6 NW 32 43 17 23 1006.7 1005.7 0.0
20/05:49pm 26.2 24.7 22.7 81 2.4 NW 35 54 19 29 1006.7 1005.7 0.0
20/05:30pm 28.1 27.2 22.8 73 3.6 NW 32 50 17 27 1006.4 1005.4 0.0
20/05:25pm 30.3 31.9 23.2 65 4.9 WNW 20 50 11 27 1006.1 1005.1 0.0
20/05:00pm 34.0 36.5 22.4 50 8.0 WNW 13 19 7 10 1005.7 1004.7 0.0
20/04:30pm 34.3 37.1 23.0 51 7.9 WNW 13 17 7 9 1006.0 1005.0 0.0
20/04:00pm 34.5 37.1 22.6 50 8.2 WSW 13 19 7 10 1006.1 1005.1 0.0
20/03:30pm 33.4 36.9 22.8 53 7.3 WSW 9 17 5 9 1006.3 1005.3 0.0
20/03:00pm 33.9 36.9 23.3 54 7.4 W 13 20 7 11 1006.8 1005.8 0.0
20/02:30pm 33.4 36.3 23.1 54 7.2 WNW 13 24 7 13 1007.2 1006.3 0.0
20/02:00pm 32.9 35.8 23.2 56 6.7 W 13 19 7 10 1007.7 1006.8 0.0
20/01:30pm 32.5 34.9 23.7 59 6.2 WNW 17 24 9 13 1008.2 1007.2 0.0
20/01:00pm 31.7 33.9 23.2 60 5.9 W 17 28 9 15 1008.6 1007.6 0.0
20/12:30pm 31.8 33.6 23.3 60 5.9 NW 19 24 10 13 1009.1 1008.1 0.0
20/12:00pm 31.4 33.3 23.5 63 5.5 NW 19 26 10 14 1009.5 1008.5 0.0
20/11:30am 30.4 32.7 22.8 64 5.2 WNW 15 20 8 11 1009.6 1008.6 0.0
20/11:00am 30.0 32.6 23.9 70 4.2 WNW 17 24 9 13 1010.1 1009.1 0.0
20/10:30am 29.5 32.4 23.2 69 4.3 W 13 20 7 11 1010.5 1009.5 0.0
20/10:00am 28.8 32.0 23.7 74 3.5 W 13 20 7 11 1010.6 1009.6 0.0
20/09:30am 27.1 32.6 24.6 86 1.7 NNW 4 7 2 4 1010.9 1009.9 0.0
20/09:00am 26.5 31.4 24.3 88 1.5 N 6 9 3 5 1010.8 1009.8 7.2
20/08:46am 26.0 31.6 24.2 90 1.2 N 2 7 1 4 1010.7 1009.7 7.2
20/08:38am 25.5 31.3 23.9 91 1.1 CALM 0 6 0 3 1010.6 1009.6 7.2
20/08:30am 25.4 30.8 23.8 91 1.1 N 2 6 1 3 1010.4 1009.4 7.2
20/08:00am 25.4 29.7 24.2 93 0.8 NE 9 11 5 6 1010.2 1009.2 7.2
20/07:30am 24.9 30.7 24.0 95 0.6 CALM 0 0 0 0 1009.6 1008.6 7.2
20/07:00am 24.6 30.3 23.7 95 0.6 CALM 0 0 0 0 1009.3 1008.3 7.2
20/06:30am 24.7 30.4 23.8 95 0.6 CALM 0 0 0 0 1008.9 1007.9 7.2
20/06:00am 24.8 30.6 23.9 95 0.6 CALM 0 0 0 0 1008.9 1007.9 7.2
20/05:33am 24.8 29.8 23.9 95 0.6 NW 4 7 2 4 1008.7 1007.7 7.2
20/05:30am 24.8 29.8 23.9 95 0.6 NW 4 7 2 4 1008.7 1007.7 7.2
20/05:00am 24.8 29.5 23.9 95 0.6 N 6 9 3 5 1008.7 1007.7 7.2
20/04:30am 24.8 30.2 23.9 95 0.6 NNW 2 9 1 5 1008.5 1007.5 7.2
20/04:09am 24.7 29.3 23.8 95 0.6 W 6 9 3 5 1008.4 1007.4 7.2
20/04:00am 24.7 29.1 23.8 95 0.6 WNW 7 9 4 5 1008.4 1007.4 7.2
20/03:30am 24.7 29.1 23.8 95 0.6 WNW 7 11 4 6 1008.5 1007.5 7.2
20/03:13am 24.9 29.0 23.9 94 0.7 W 9 11 5 6 1008.8 1007.8 7.2
20/03:00am 25.0 29.7 24.0 94 0.7 W 6 7 3 4 1009.0 1008.0 7.2
20/02:30am 25.0 30.5 24.0 94 0.7 SW 2 7 1 4 1009.2 1008.2 7.2
20/02:00am 25.0 30.5 24.0 94 0.7 N 2 11 1 6 1009.5 1008.5 7.2
20/01:30am 25.2 29.5 24.2 94 0.7 N 9 15 5 8 1010.0 1009.0 7.0
20/01:00am 25.1 29.7 24.1 94 0.7 NNE 7 9 4 5 1010.3 1009.3 5.4
20/12:50am 25.1 30.2 24.1 94 0.7 NE 4 7 2 4 1010.3 1009.3 4.8
20/12:30am 25.0 29.4 23.8 93 0.8 NNE 7 9 4 5 1010.6 1009.6 3.6
20/12:00am 25.1 28.7 23.7 92 1.0 ENE 11 15 6 8 1010.6 1009.6 2.6
 
Date/Time
CST
Temp
°C
App
Temp
°C
Dew
Point
°C
Rel
Hum
%
Delta-T
°C
Wind Press
QNH
hPa
Press
MSL
hPa
Rain since
9am
mm
Dir  Spd
km/h
Gust
km/h
Spd
kts
Gust
kts
19/11:30pm 25.0 29.0 23.8 93 0.8 E 9 15 5 8 1010.8 1009.8 2.4
19/11:00pm 25.1 29.2 23.9 93 0.8 ENE 9 13 5 7 1010.4 1009.4 2.4
19/10:30pm 25.0 29.3 23.6 92 1.0 NW 7 11 4 6 1010.5 1009.5 1.8
19/10:00pm 24.7 26.5 23.3 92 1.0 WNW 19 26 10 14 1010.1 1009.1 1.2
19/09:30pm 25.0 27.7 23.4 91 1.1 WNW 15 20 8 11 1009.4 1008.4 0.0
19/09:00pm 25.3 25.7 23.2 88 1.4 WNW 26 33 14 18 1009.1 1008.1 0.0
19/08:30pm 25.5 26.7 23.2 87 1.6 WNW 22 30 12 16 1008.8 1007.8 0.0
19/08:00pm 28.2 28.0 22.0 69 4.2 NW 26 37 14 20 1007.6 1006.7 0.0
19/07:59pm 28.2 28.4 22.0 69 4.2 NW 24 35 13 19 1007.6 1006.7 0.0
19/07:30pm 30.0 34.7 23.9 70 4.3 NNW 6 7 3 4 1007.1 1006.2 0.0
19/07:00pm 30.5 35.2 23.9 68 4.6 WNW 6 7 3 4 1006.2 1005.2 0.0
19/06:30pm 31.8 35.5 23.3 60 5.9 W 9 13 5 7 1006.1 1005.1 0.0
19/06:00pm 32.2 35.1 23.2 59 6.3 WNW 13 17 7 9 1005.9 1004.9 0.0
19/05:30pm 31.8 34.8 23.3 60 5.9 WNW 13 20 7 11 1006.0 1005.0 0.0
19/05:00pm 31.2 32.8 23.3 63 5.5 WNW 20 33 11 18 1006.2 1005.2 0.0
19/04:30pm 33.1 36.4 22.5 53 7.3 W 9 13 5 7 1006.1 1005.1 0.0
19/04:00pm 34.0 37.8 22.7 51 7.8 WNW 7 17 4 9 1006.4 1005.4 0.0
19/03:30pm 34.1 37.1 21.9 49 8.4 W 9 15 5 8 1006.5 1005.5 0.0
19/03:00pm 33.5 37.2 22.6 53 7.5 WNW 7 13 4 7 1006.7 1005.7 0.0
19/02:30pm 33.4 37.4 23.7 56 6.8 WNW 9 17 5 9 1007.0 1006.1 0.0
19/02:00pm 32.9 35.9 22.7 55 7.0 W 11 20 6 11 1007.3 1006.4 0.0
19/01:30pm 32.6 34.9 22.7 56 6.8 NW 15 22 8 12 1007.8 1006.9 0.0
19/01:00pm 32.3 35.7 23.3 59 6.2 WNW 11 17 6 9 1008.2 1007.2 0.0
19/12:30pm 31.6 34.3 22.9 60 6.0 WNW 13 17 7 9 1008.6 1007.6 0.0
19/12:00pm 31.3 35.8 23.7 64 5.3 WNW 6 13 3 7 1008.7 1007.7 0.0
19/11:30am 30.8 34.8 23.7 66 4.9 N 9 17 5 9 1009.2 1008.2 0.0
19/11:00am 29.5 33.2 23.2 69 4.3 NNW 9 19 5 10 1009.7 1008.7 0.0
19/10:30am 29.5 32.8 23.2 69 4.3 NNW 11 17 6 9 1010.1 1009.1 0.0
19/10:00am 29.0 32.8 24.1 75 3.4 WNW 11 17 6 9 1010.6 1009.6 0.0
19/09:30am 28.0 32.3 24.2 80 2.6 WNW 9 15 5 8 1011.0 1010.0 0.0
19/09:00am 26.8 31.3 23.9 84 2.0 N 7 9 4 5 1011.1 1010.1 17.4
19/08:30am 26.0 30.7 23.3 85 1.8 N 4 9 2 5 1011.0 1010.0 17.4
19/08:00am 25.6 29.9 23.3 87 1.6 NNW 6 7 3 4 1010.7 1009.7 17.4
19/07:30am 25.1 29.4 23.3 90 1.2 WNW 6 9 3 5 1010.2 1009.2 17.4
19/07:00am 24.3 29.7 23.3 94 0.7 CALM 0 0 0 0 1010.0 1009.0 17.4
19/06:30am 24.0 29.3 23.0 94 0.7 CALM 0 0 0 0 1009.7 1008.7 17.4

Other Formats:

Comma delimited format used in spreadsheet applications
http://www.bom.gov.au/fwo/IDD60801/IDD60801.94131.axf

JavaScript Object Notation format (JSON) in row-major order
http://www.bom.gov.au/fwo/IDD60801/IDD60801.94131.json